sensor_id;sensor_type;location;lat;lon;timestamp;P1;durP1;ratioP1;P2;durP2;ratioP2
71176;SDS011;58877;51.992;4.504;2023-06-19T00:02:03;1.22;;;1.22;;
71176;SDS011;58877;51.992;4.504;2023-06-19T00:04:32;1.33;;;1.33;;
71176;SDS011;58877;51.992;4.504;2023-06-19T00:07:03;1.07;;;1.06;;
71176;SDS011;58877;51.992;4.504;2023-06-19T00:09:29;1.10;;;1.10;;
71176;SDS011;58877;51.992;4.504;2023-06-19T00:11:58;1.20;;;1.20;;
71176;SDS011;58877;51.992;4.504;2023-06-19T00:14:27;1.12;;;1.12;;
71176;SDS011;58877;51.992;4.504;2023-06-19T00:16:56;1.03;;;1.02;;
71176;SDS011;58877;51.992;4.504;2023-06-19T00:19:24;1.08;;;1.08;;
71176;SDS011;58877;51.992;4.504;2023-06-19T00:21:54;1.30;;;1.30;;
71176;SDS011;58877;51.992;4.504;2023-06-19T00:24:32;1.08;;;1.08;;
71176;SDS011;58877;51.992;4.504;2023-06-19T00:27:02;1.32;;;1.32;;
71176;SDS011;58877;51.992;4.504;2023-06-19T00:29:31;1.41;;;1.41;;
71176;SDS011;58877;51.992;4.504;2023-06-19T00:32:04;1.56;;;1.56;;
71176;SDS011;58877;51.992;4.504;2023-06-19T00:34:33;1.36;;;1.36;;
71176;SDS011;58877;51.992;4.504;2023-06-19T00:37:04;1.68;;;1.68;;
71176;SDS011;58877;51.992;4.504;2023-06-19T00:39:33;1.66;;;1.66;;
71176;SDS011;58877;51.992;4.504;2023-06-19T00:42:22;1.95;;;1.95;;
71176;SDS011;58877;51.992;4.504;2023-06-19T00:44:50;2.16;;;2.16;;
71176;SDS011;58877;51.992;4.504;2023-06-19T00:47:19;2.34;;;2.34;;
71176;SDS011;58877;51.992;4.504;2023-06-19T00:49:59;2.26;;;2.26;;
71176;SDS011;58877;51.992;4.504;2023-06-19T00:52:25;2.15;;;2.15;;
71176;SDS011;58877;51.992;4.504;2023-06-19T00:54:53;2.34;;;2.34;;
71176;SDS011;58877;51.992;4.504;2023-06-19T01:00:03;2.67;;;2.67;;
71176;SDS011;58877;51.992;4.504;2023-06-19T01:02:31;1.95;;;1.95;;
71176;SDS011;58877;51.992;4.504;2023-06-19T01:04:57;2.30;;;2.30;;
71176;SDS011;58877;51.992;4.504;2023-06-19T01:07:47;2.48;;;2.48;;
71176;SDS011;58877;51.992;4.504;2023-06-19T01:10:25;2.72;;;2.72;;
71176;SDS011;58877;51.992;4.504;2023-06-19T01:13:14;3.00;;;3.00;;
71176;SDS011;58877;51.992;4.504;2023-06-19T01:16:05;3.34;;;3.34;;
71176;SDS011;58877;51.992;4.504;2023-06-19T01:18:32;3.49;;;3.49;;
71176;SDS011;58877;51.992;4.504;2023-06-19T01:21:12;3.18;;;3.18;;
71176;SDS011;58877;51.992;4.504;2023-06-19T01:23:40;3.76;;;3.76;;
71176;SDS011;58877;51.992;4.504;2023-06-19T01:26:10;4.30;;;4.30;;
71176;SDS011;58877;51.992;4.504;2023-06-19T01:28:40;4.19;;;4.19;;
71176;SDS011;58877;51.992;4.504;2023-06-19T01:31:28;4.49;;;4.49;;
71176;SDS011;58877;51.992;4.504;2023-06-19T01:34:36;4.51;;;4.51;;
71176;SDS011;58877;51.992;4.504;2023-06-19T01:37:03;4.36;;;4.36;;
71176;SDS011;58877;51.992;4.504;2023-06-19T01:39:44;4.56;;;4.56;;
71176;SDS011;58877;51.992;4.504;2023-06-19T01:42:14;4.10;;;4.10;;
71176;SDS011;58877;51.992;4.504;2023-06-19T01:44:41;4.49;;;4.49;;
71176;SDS011;58877;51.992;4.504;2023-06-19T01:47:10;4.86;;;4.86;;
71176;SDS011;58877;51.992;4.504;2023-06-19T01:49:37;4.63;;;4.63;;
71176;SDS011;58877;51.992;4.504;2023-06-19T01:52:04;4.60;;;4.60;;
71176;SDS011;58877;51.992;4.504;2023-06-19T01:54:30;4.92;;;4.92;;
71176;SDS011;58877;51.992;4.504;2023-06-19T01:56:57;4.48;;;4.48;;
71176;SDS011;58877;51.992;4.504;2023-06-19T01:59:24;4.99;;;4.99;;
71176;SDS011;58877;51.992;4.504;2023-06-19T02:01:53;4.80;;;4.80;;
71176;SDS011;58877;51.992;4.504;2023-06-19T02:04:18;4.71;;;4.71;;
71176;SDS011;58877;51.992;4.504;2023-06-19T02:06:44;4.61;;;4.61;;
71176;SDS011;58877;51.992;4.504;2023-06-19T02:09:10;5.22;;;5.22;;
71176;SDS011;58877;51.992;4.504;2023-06-19T02:11:36;5.15;;;5.15;;
71176;SDS011;58877;51.992;4.504;2023-06-19T02:14:01;5.41;;;5.41;;
71176;SDS011;58877;51.992;4.504;2023-06-19T02:16:30;5.97;;;5.97;;
71176;SDS011;58877;51.992;4.504;2023-06-19T02:19:02;6.04;;;6.04;;
71176;SDS011;58877;51.992;4.504;2023-06-19T02:21:31;7.11;;;7.11;;
71176;SDS011;58877;51.992;4.504;2023-06-19T02:23:59;8.74;;;8.74;;
71176;SDS011;58877;51.992;4.504;2023-06-19T02:26:31;10.43;;;10.42;;
71176;SDS011;58877;51.992;4.504;2023-06-19T02:28:57;10.32;;;10.30;;
71176;SDS011;58877;51.992;4.504;2023-06-19T02:31:30;11.19;;;11.17;;
71176;SDS011;58877;51.992;4.504;2023-06-19T02:34:05;11.95;;;11.90;;
71176;SDS011;58877;51.992;4.504;2023-06-19T02:36:31;12.00;;;11.99;;
71176;SDS011;58877;51.992;4.504;2023-06-19T02:39:01;12.55;;;12.53;;
71176;SDS011;58877;51.992;4.504;2023-06-19T02:41:29;12.74;;;12.70;;
71176;SDS011;58877;51.992;4.504;2023-06-19T02:43:55;12.11;;;12.04;;
71176;SDS011;58877;51.992;4.504;2023-06-19T02:46:26;12.25;;;12.18;;
71176;SDS011;58877;51.992;4.504;2023-06-19T02:48:53;11.66;;;11.59;;
71176;SDS011;58877;51.992;4.504;2023-06-19T02:51:19;11.86;;;11.83;;
71176;SDS011;58877;51.992;4.504;2023-06-19T02:53:45;10.26;;;10.24;;
71176;SDS011;58877;51.992;4.504;2023-06-19T02:56:14;10.69;;;10.65;;
71176;SDS011;58877;51.992;4.504;2023-06-19T02:58:50;11.02;;;11.01;;
71176;SDS011;58877;51.992;4.504;2023-06-19T03:01:16;11.34;;;11.32;;
71176;SDS011;58877;51.992;4.504;2023-06-19T03:03:45;11.99;;;11.98;;
71176;SDS011;58877;51.992;4.504;2023-06-19T03:06:19;11.68;;;11.67;;
71176;SDS011;58877;51.992;4.504;2023-06-19T03:08:45;12.87;;;12.87;;
71176;SDS011;58877;51.992;4.504;2023-06-19T03:11:12;12.55;;;12.53;;
71176;SDS011;58877;51.992;4.504;2023-06-19T03:13:52;13.77;;;13.75;;
71176;SDS011;58877;51.992;4.504;2023-06-19T03:16:21;14.61;;;14.58;;
71176;SDS011;58877;51.992;4.504;2023-06-19T03:18:48;14.63;;;14.59;;
71176;SDS011;58877;51.992;4.504;2023-06-19T03:21:15;15.53;;;15.42;;
71176;SDS011;58877;51.992;4.504;2023-06-19T03:23:42;16.79;;;16.76;;
71176;SDS011;58877;51.992;4.504;2023-06-19T03:26:15;17.11;;;16.97;;
71176;SDS011;58877;51.992;4.504;2023-06-19T03:28:44;15.75;;;15.63;;
71176;SDS011;58877;51.992;4.504;2023-06-19T03:31:12;14.57;;;14.47;;
71176;SDS011;58877;51.992;4.504;2023-06-19T03:33:45;13.09;;;12.99;;
71176;SDS011;58877;51.992;4.504;2023-06-19T03:36:11;12.00;;;11.98;;
71176;SDS011;58877;51.992;4.504;2023-06-19T03:38:37;10.11;;;10.11;;
71176;SDS011;58877;51.992;4.504;2023-06-19T03:41:03;9.87;;;9.87;;
71176;SDS011;58877;51.992;4.504;2023-06-19T03:43:29;9.38;;;9.38;;
71176;SDS011;58877;51.992;4.504;2023-06-19T03:45:55;9.30;;;9.30;;
71176;SDS011;58877;51.992;4.504;2023-06-19T03:48:20;9.09;;;9.04;;
71176;SDS011;58877;51.992;4.504;2023-06-19T03:50:46;7.72;;;7.72;;
71176;SDS011;58877;51.992;4.504;2023-06-19T03:53:11;6.97;;;6.97;;
71176;SDS011;58877;51.992;4.504;2023-06-19T03:55:37;6.25;;;6.25;;
71176;SDS011;58877;51.992;4.504;2023-06-19T03:58:03;5.73;;;5.73;;
71176;SDS011;58877;51.992;4.504;2023-06-19T04:00:29;5.28;;;5.28;;
71176;SDS011;58877;51.992;4.504;2023-06-19T04:02:54;4.37;;;4.37;;
71176;SDS011;58877;51.992;4.504;2023-06-19T04:05:21;4.38;;;4.38;;
71176;SDS011;58877;51.992;4.504;2023-06-19T04:07:47;4.54;;;4.54;;
71176;SDS011;58877;51.992;4.504;2023-06-19T04:10:12;4.10;;;4.10;;
71176;SDS011;58877;51.992;4.504;2023-06-19T04:12:38;4.23;;;4.23;;
71176;SDS011;58877;51.992;4.504;2023-06-19T04:15:06;4.40;;;4.40;;
71176;SDS011;58877;51.992;4.504;2023-06-19T04:17:32;4.78;;;4.78;;
71176;SDS011;58877;51.992;4.504;2023-06-19T04:19:57;4.70;;;4.70;;
71176;SDS011;58877;51.992;4.504;2023-06-19T04:22:23;4.99;;;4.99;;
71176;SDS011;58877;51.992;4.504;2023-06-19T04:24:49;4.56;;;4.56;;
71176;SDS011;58877;51.992;4.504;2023-06-19T04:27:14;4.63;;;4.63;;
71176;SDS011;58877;51.992;4.504;2023-06-19T04:29:40;5.56;;;5.56;;
71176;SDS011;58877;51.992;4.504;2023-06-19T04:32:06;6.04;;;6.04;;
71176;SDS011;58877;51.992;4.504;2023-06-19T04:34:39;5.74;;;5.74;;
71176;SDS011;58877;51.992;4.504;2023-06-19T04:37:08;6.65;;;6.65;;
71176;SDS011;58877;51.992;4.504;2023-06-19T04:39:33;6.70;;;6.70;;
71176;SDS011;58877;51.992;4.504;2023-06-19T04:41:59;7.13;;;7.13;;
71176;SDS011;58877;51.992;4.504;2023-06-19T04:44:25;6.66;;;6.66;;
71176;SDS011;58877;51.992;4.504;2023-06-19T04:46:51;7.29;;;7.29;;
71176;SDS011;58877;51.992;4.504;2023-06-19T04:49:29;7.57;;;7.57;;
71176;SDS011;58877;51.992;4.504;2023-06-19T04:51:56;7.21;;;7.21;;
71176;SDS011;58877;51.992;4.504;2023-06-19T04:54:22;7.23;;;7.23;;
71176;SDS011;58877;51.992;4.504;2023-06-19T04:56:48;7.09;;;7.09;;
71176;SDS011;58877;51.992;4.504;2023-06-19T04:59:14;6.67;;;6.66;;
71176;SDS011;58877;51.992;4.504;2023-06-19T05:01:43;6.62;;;6.61;;
71176;SDS011;58877;51.992;4.504;2023-06-19T05:04:09;6.62;;;6.62;;
71176;SDS011;58877;51.992;4.504;2023-06-19T05:06:39;6.55;;;6.55;;
71176;SDS011;58877;51.992;4.504;2023-06-19T05:09:05;7.43;;;7.43;;
71176;SDS011;58877;51.992;4.504;2023-06-19T05:11:31;7.74;;;7.74;;
71176;SDS011;58877;51.992;4.504;2023-06-19T05:13:56;8.46;;;8.46;;
71176;SDS011;58877;51.992;4.504;2023-06-19T05:16:22;8.22;;;8.22;;
71176;SDS011;58877;51.992;4.504;2023-06-19T05:18:48;9.95;;;9.95;;
71176;SDS011;58877;51.992;4.504;2023-06-19T05:21:14;9.85;;;9.85;;
71176;SDS011;58877;51.992;4.504;2023-06-19T05:23:40;10.81;;;10.81;;
71176;SDS011;58877;51.992;4.504;2023-06-19T05:26:06;10.18;;;10.18;;
71176;SDS011;58877;51.992;4.504;2023-06-19T05:28:31;10.52;;;10.50;;
71176;SDS011;58877;51.992;4.504;2023-06-19T05:30:57;10.43;;;10.42;;
71176;SDS011;58877;51.992;4.504;2023-06-19T05:33:23;10.22;;;10.22;;
71176;SDS011;58877;51.992;4.504;2023-06-19T05:35:49;10.85;;;10.84;;
71176;SDS011;58877;51.992;4.504;2023-06-19T05:38:19;11.52;;;11.51;;
71176;SDS011;58877;51.992;4.504;2023-06-19T05:40:46;11.37;;;11.37;;
71176;SDS011;58877;51.992;4.504;2023-06-19T05:43:11;11.74;;;11.73;;
71176;SDS011;58877;51.992;4.504;2023-06-19T05:45:38;10.80;;;10.80;;
71176;SDS011;58877;51.992;4.504;2023-06-19T05:48:03;10.68;;;10.68;;
71176;SDS011;58877;51.992;4.504;2023-06-19T05:50:29;10.85;;;10.85;;
71176;SDS011;58877;51.992;4.504;2023-06-19T05:52:56;10.47;;;10.44;;
71176;SDS011;58877;51.992;4.504;2023-06-19T05:55:22;10.89;;;10.89;;
71176;SDS011;58877;51.992;4.504;2023-06-19T05:57:50;11.06;;;11.02;;
71176;SDS011;58877;51.992;4.504;2023-06-19T06:00:19;10.40;;;10.40;;
71176;SDS011;58877;51.992;4.504;2023-06-19T06:02:45;10.05;;;10.05;;
71176;SDS011;58877;51.992;4.504;2023-06-19T06:05:11;9.99;;;9.97;;
71176;SDS011;58877;51.992;4.504;2023-06-19T06:07:37;10.19;;;10.19;;
71176;SDS011;58877;51.992;4.504;2023-06-19T06:10:03;10.15;;;10.15;;
71176;SDS011;58877;51.992;4.504;2023-06-19T06:12:29;10.88;;;10.88;;
71176;SDS011;58877;51.992;4.504;2023-06-19T06:14:55;10.89;;;10.88;;
71176;SDS011;58877;51.992;4.504;2023-06-19T06:17:20;10.53;;;10.53;;
71176;SDS011;58877;51.992;4.504;2023-06-19T06:19:46;9.59;;;9.59;;
71176;SDS011;58877;51.992;4.504;2023-06-19T06:22:11;9.31;;;9.31;;
71176;SDS011;58877;51.992;4.504;2023-06-19T06:24:37;9.38;;;9.38;;
71176;SDS011;58877;51.992;4.504;2023-06-19T06:27:03;9.03;;;9.03;;
71176;SDS011;58877;51.992;4.504;2023-06-19T06:29:30;9.39;;;9.39;;
71176;SDS011;58877;51.992;4.504;2023-06-19T06:32:03;8.60;;;8.60;;
71176;SDS011;58877;51.992;4.504;2023-06-19T06:34:31;9.44;;;9.36;;
71176;SDS011;58877;51.992;4.504;2023-06-19T06:36:58;9.15;;;9.13;;
71176;SDS011;58877;51.992;4.504;2023-06-19T06:39:24;8.91;;;8.91;;
71176;SDS011;58877;51.992;4.504;2023-06-19T06:41:49;9.43;;;9.43;;
71176;SDS011;58877;51.992;4.504;2023-06-19T06:44:15;9.43;;;9.43;;
71176;SDS011;58877;51.992;4.504;2023-06-19T06:46:41;9.31;;;9.31;;
71176;SDS011;58877;51.992;4.504;2023-06-19T06:49:07;8.82;;;8.82;;
71176;SDS011;58877;51.992;4.504;2023-06-19T06:51:33;9.15;;;9.15;;
71176;SDS011;58877;51.992;4.504;2023-06-19T06:53:58;8.82;;;8.82;;
71176;SDS011;58877;51.992;4.504;2023-06-19T06:56:26;9.79;;;9.79;;
71176;SDS011;58877;51.992;4.504;2023-06-19T06:58:52;9.81;;;9.80;;
71176;SDS011;58877;51.992;4.504;2023-06-19T07:01:17;9.46;;;9.44;;
71176;SDS011;58877;51.992;4.504;2023-06-19T07:03:43;9.85;;;9.85;;
71176;SDS011;58877;51.992;4.504;2023-06-19T07:06:08;9.74;;;9.74;;
71176;SDS011;58877;51.992;4.504;2023-06-19T07:08:34;9.34;;;9.34;;
71176;SDS011;58877;51.992;4.504;2023-06-19T07:11:00;9.41;;;9.40;;
71176;SDS011;58877;51.992;4.504;2023-06-19T07:13:26;9.39;;;9.39;;
71176;SDS011;58877;51.992;4.504;2023-06-19T07:15:52;8.42;;;8.42;;
71176;SDS011;58877;51.992;4.504;2023-06-19T07:18:17;8.54;;;8.52;;
71176;SDS011;58877;51.992;4.504;2023-06-19T07:20:43;8.73;;;8.73;;
71176;SDS011;58877;51.992;4.504;2023-06-19T07:23:09;8.99;;;8.99;;
71176;SDS011;58877;51.992;4.504;2023-06-19T07:25:36;9.50;;;9.50;;
71176;SDS011;58877;51.992;4.504;2023-06-19T07:28:02;9.16;;;9.16;;
71176;SDS011;58877;51.992;4.504;2023-06-19T07:30:30;8.83;;;8.83;;
71176;SDS011;58877;51.992;4.504;2023-06-19T07:32:56;8.25;;;8.23;;
71176;SDS011;58877;51.992;4.504;2023-06-19T07:35:23;8.57;;;8.57;;
71176;SDS011;58877;51.992;4.504;2023-06-19T07:37:48;8.63;;;8.63;;
71176;SDS011;58877;51.992;4.504;2023-06-19T07:40:14;9.17;;;9.17;;
71176;SDS011;58877;51.992;4.504;2023-06-19T07:42:40;8.70;;;8.70;;
71176;SDS011;58877;51.992;4.504;2023-06-19T07:45:05;8.79;;;8.79;;
71176;SDS011;58877;51.992;4.504;2023-06-19T07:47:31;9.05;;;9.05;;
71176;SDS011;58877;51.992;4.504;2023-06-19T07:49:57;9.09;;;9.08;;
71176;SDS011;58877;51.992;4.504;2023-06-19T07:52:22;8.93;;;8.92;;
71176;SDS011;58877;51.992;4.504;2023-06-19T07:54:51;8.75;;;8.75;;
71176;SDS011;58877;51.992;4.504;2023-06-19T07:57:19;9.05;;;9.05;;
71176;SDS011;58877;51.992;4.504;2023-06-19T07:59:46;8.67;;;8.67;;
71176;SDS011;58877;51.992;4.504;2023-06-19T08:02:13;8.15;;;8.15;;
71176;SDS011;58877;51.992;4.504;2023-06-19T08:04:39;7.90;;;7.90;;
71176;SDS011;58877;51.992;4.504;2023-06-19T08:07:05;7.26;;;7.26;;
71176;SDS011;58877;51.992;4.504;2023-06-19T08:09:31;7.24;;;7.24;;
71176;SDS011;58877;51.992;4.504;2023-06-19T08:11:57;6.59;;;6.59;;
71176;SDS011;58877;51.992;4.504;2023-06-19T08:14:23;7.34;;;7.34;;
71176;SDS011;58877;51.992;4.504;2023-06-19T08:16:48;6.67;;;6.64;;
71176;SDS011;58877;51.992;4.504;2023-06-19T08:19:14;7.40;;;7.40;;
71176;SDS011;58877;51.992;4.504;2023-06-19T08:21:40;6.75;;;6.74;;
71176;SDS011;58877;51.992;4.504;2023-06-19T08:24:06;7.20;;;7.18;;
71176;SDS011;58877;51.992;4.504;2023-06-19T08:26:31;6.49;;;6.49;;
71176;SDS011;58877;51.992;4.504;2023-06-19T08:28:57;6.47;;;6.47;;
71176;SDS011;58877;51.992;4.504;2023-06-19T08:31:23;6.48;;;6.48;;
71176;SDS011;58877;51.992;4.504;2023-06-19T08:33:53;6.41;;;6.41;;
71176;SDS011;58877;51.992;4.504;2023-06-19T08:36:24;6.94;;;6.94;;
71176;SDS011;58877;51.992;4.504;2023-06-19T08:38:51;6.84;;;6.84;;
71176;SDS011;58877;51.992;4.504;2023-06-19T08:41:23;6.86;;;6.86;;
71176;SDS011;58877;51.992;4.504;2023-06-19T08:43:48;6.67;;;6.67;;
71176;SDS011;58877;51.992;4.504;2023-06-19T08:46:15;6.78;;;6.78;;
71176;SDS011;58877;51.992;4.504;2023-06-19T08:48:45;7.39;;;7.36;;
71176;SDS011;58877;51.992;4.504;2023-06-19T08:51:11;7.08;;;7.08;;
71176;SDS011;58877;51.992;4.504;2023-06-19T08:53:44;6.99;;;6.99;;
71176;SDS011;58877;51.992;4.504;2023-06-19T08:56:12;7.16;;;7.16;;
71176;SDS011;58877;51.992;4.504;2023-06-19T08:58:38;7.52;;;7.52;;
71176;SDS011;58877;51.992;4.504;2023-06-19T09:01:03;7.85;;;7.85;;
71176;SDS011;58877;51.992;4.504;2023-06-19T09:03:29;8.03;;;8.03;;
71176;SDS011;58877;51.992;4.504;2023-06-19T09:05:55;7.75;;;7.75;;
71176;SDS011;58877;51.992;4.504;2023-06-19T09:08:21;7.45;;;7.43;;
71176;SDS011;58877;51.992;4.504;2023-06-19T09:11:08;6.95;;;6.90;;
71176;SDS011;58877;51.992;4.504;2023-06-19T09:13:34;6.88;;;6.88;;
71176;SDS011;58877;51.992;4.504;2023-06-19T09:18:44;7.35;;;7.35;;
71176;SDS011;58877;51.992;4.504;2023-06-19T09:21:18;6.97;;;6.97;;
71176;SDS011;58877;51.992;4.504;2023-06-19T09:23:47;7.02;;;7.02;;
71176;SDS011;58877;51.992;4.504;2023-06-19T09:26:16;6.46;;;6.46;;
71176;SDS011;58877;51.992;4.504;2023-06-19T09:28:44;6.01;;;6.01;;
71176;SDS011;58877;51.992;4.504;2023-06-19T09:31:10;6.38;;;6.38;;
71176;SDS011;58877;51.992;4.504;2023-06-19T09:33:36;6.58;;;6.58;;
71176;SDS011;58877;51.992;4.504;2023-06-19T09:36:04;7.38;;;7.38;;
71176;SDS011;58877;51.992;4.504;2023-06-19T09:38:33;7.48;;;7.48;;
71176;SDS011;58877;51.992;4.504;2023-06-19T09:41:02;7.12;;;7.12;;
71176;SDS011;58877;51.992;4.504;2023-06-19T09:43:40;7.06;;;7.06;;
71176;SDS011;58877;51.992;4.504;2023-06-19T09:46:09;7.73;;;7.73;;
71176;SDS011;58877;51.992;4.504;2023-06-19T09:48:40;7.26;;;7.26;;
71176;SDS011;58877;51.992;4.504;2023-06-19T09:51:23;7.08;;;7.08;;
71176;SDS011;58877;51.992;4.504;2023-06-19T09:53:56;9.22;;;9.22;;
71176;SDS011;58877;51.992;4.504;2023-06-19T09:56:28;10.15;;;10.15;;
71176;SDS011;58877;51.992;4.504;2023-06-19T09:58:55;9.10;;;9.10;;
71176;SDS011;58877;51.992;4.504;2023-06-19T10:01:29;7.64;;;7.64;;
71176;SDS011;58877;51.992;4.504;2023-06-19T10:04:04;8.02;;;8.02;;
71176;SDS011;58877;51.992;4.504;2023-06-19T10:06:31;8.68;;;8.68;;
71176;SDS011;58877;51.992;4.504;2023-06-19T10:09:05;7.94;;;7.94;;
71176;SDS011;58877;51.992;4.504;2023-06-19T10:11:52;8.28;;;8.28;;
71176;SDS011;58877;51.992;4.504;2023-06-19T10:14:18;7.73;;;7.73;;
71176;SDS011;58877;51.992;4.504;2023-06-19T10:16:45;6.86;;;6.86;;
71176;SDS011;58877;51.992;4.504;2023-06-19T10:19:14;7.60;;;7.60;;
71176;SDS011;58877;51.992;4.504;2023-06-19T10:21:52;9.45;;;9.45;;
71176;SDS011;58877;51.992;4.504;2023-06-19T10:24:19;8.07;;;8.07;;
71176;SDS011;58877;51.992;4.504;2023-06-19T10:26:58;6.19;;;6.19;;
71176;SDS011;58877;51.992;4.504;2023-06-19T10:29:26;6.28;;;6.28;;
71176;SDS011;58877;51.992;4.504;2023-06-19T10:31:53;5.58;;;5.58;;
71176;SDS011;58877;51.992;4.504;2023-06-19T10:34:18;5.64;;;5.64;;
71176;SDS011;58877;51.992;4.504;2023-06-19T10:36:44;6.82;;;6.80;;
71176;SDS011;58877;51.992;4.504;2023-06-19T10:39:10;6.87;;;6.85;;
71176;SDS011;58877;51.992;4.504;2023-06-19T10:41:39;6.73;;;6.71;;
71176;SDS011;58877;51.992;4.504;2023-06-19T10:44:06;7.48;;;7.48;;
71176;SDS011;58877;51.992;4.504;2023-06-19T10:46:38;8.80;;;8.80;;
71176;SDS011;58877;51.992;4.504;2023-06-19T10:49:05;10.17;;;10.17;;
71176;SDS011;58877;51.992;4.504;2023-06-19T10:51:36;10.17;;;10.17;;
71176;SDS011;58877;51.992;4.504;2023-06-19T10:54:03;11.16;;;11.16;;
71176;SDS011;58877;51.992;4.504;2023-06-19T10:56:29;11.23;;;11.23;;
71176;SDS011;58877;51.992;4.504;2023-06-19T10:59:03;10.48;;;10.48;;
71176;SDS011;58877;51.992;4.504;2023-06-19T11:01:47;9.74;;;9.72;;
71176;SDS011;58877;51.992;4.504;2023-06-19T11:04:14;9.01;;;9.01;;
71176;SDS011;58877;51.992;4.504;2023-06-19T11:06:41;8.74;;;8.74;;
71176;SDS011;58877;51.992;4.504;2023-06-19T11:09:09;7.28;;;7.28;;
71176;SDS011;58877;51.992;4.504;2023-06-19T11:11:43;6.86;;;6.86;;
71176;SDS011;58877;51.992;4.504;2023-06-19T11:14:11;6.49;;;6.49;;
71176;SDS011;58877;51.992;4.504;2023-06-19T11:16:39;5.52;;;5.52;;
71176;SDS011;58877;51.992;4.504;2023-06-19T11:19:07;5.25;;;5.25;;
71176;SDS011;58877;51.992;4.504;2023-06-19T11:21:35;5.45;;;5.45;;
71176;SDS011;58877;51.992;4.504;2023-06-19T11:24:10;5.93;;;5.93;;
71176;SDS011;58877;51.992;4.504;2023-06-19T11:26:38;5.36;;;5.36;;
71176;SDS011;58877;51.992;4.504;2023-06-19T11:29:25;6.35;;;6.35;;
71176;SDS011;58877;51.992;4.504;2023-06-19T11:31:54;6.64;;;6.64;;
71176;SDS011;58877;51.992;4.504;2023-06-19T11:34:32;6.73;;;6.73;;
71176;SDS011;58877;51.992;4.504;2023-06-19T11:37:22;6.88;;;6.88;;
71176;SDS011;58877;51.992;4.504;2023-06-19T11:39:48;7.45;;;7.44;;
71176;SDS011;58877;51.992;4.504;2023-06-19T11:42:17;7.00;;;7.00;;
71176;SDS011;58877;51.992;4.504;2023-06-19T11:47:22;8.41;;;8.41;;
71176;SDS011;58877;51.992;4.504;2023-06-19T11:49:48;8.36;;;8.36;;
71176;SDS011;58877;51.992;4.504;2023-06-19T11:52:18;7.13;;;7.13;;
71176;SDS011;58877;51.992;4.504;2023-06-19T11:54:43;7.89;;;7.89;;
71176;SDS011;58877;51.992;4.504;2023-06-19T11:57:09;8.26;;;8.26;;
71176;SDS011;58877;51.992;4.504;2023-06-19T11:59:38;9.09;;;9.09;;
71176;SDS011;58877;51.992;4.504;2023-06-19T12:02:05;11.42;;;11.42;;
71176;SDS011;58877;51.992;4.504;2023-06-19T12:04:32;8.72;;;8.72;;
71176;SDS011;58877;51.992;4.504;2023-06-19T12:06:59;7.83;;;7.83;;
71176;SDS011;58877;51.992;4.504;2023-06-19T12:09:24;7.68;;;7.68;;
71176;SDS011;58877;51.992;4.504;2023-06-19T12:11:50;7.54;;;7.54;;
71176;SDS011;58877;51.992;4.504;2023-06-19T12:14:16;8.64;;;8.64;;
71176;SDS011;58877;51.992;4.504;2023-06-19T12:16:45;8.90;;;8.90;;
71176;SDS011;58877;51.992;4.504;2023-06-19T12:19:11;8.32;;;8.32;;
71176;SDS011;58877;51.992;4.504;2023-06-19T12:21:37;8.47;;;8.47;;
71176;SDS011;58877;51.992;4.504;2023-06-19T12:24:02;8.05;;;8.05;;
71176;SDS011;58877;51.992;4.504;2023-06-19T12:26:29;9.31;;;9.31;;
71176;SDS011;58877;51.992;4.504;2023-06-19T12:28:55;8.80;;;8.80;;
71176;SDS011;58877;51.992;4.504;2023-06-19T12:31:20;8.29;;;8.29;;
71176;SDS011;58877;51.992;4.504;2023-06-19T12:33:47;7.79;;;7.79;;
71176;SDS011;58877;51.992;4.504;2023-06-19T12:36:14;6.82;;;6.82;;
71176;SDS011;58877;51.992;4.504;2023-06-19T12:38:42;6.45;;;6.45;;
71176;SDS011;58877;51.992;4.504;2023-06-19T12:41:08;6.83;;;6.83;;
71176;SDS011;58877;51.992;4.504;2023-06-19T12:43:34;6.24;;;6.24;;
71176;SDS011;58877;51.992;4.504;2023-06-19T12:46:00;5.93;;;5.93;;
71176;SDS011;58877;51.992;4.504;2023-06-19T12:48:26;6.80;;;6.78;;
71176;SDS011;58877;51.992;4.504;2023-06-19T12:50:55;6.65;;;6.65;;
71176;SDS011;58877;51.992;4.504;2023-06-19T12:53:21;5.89;;;5.89;;
71176;SDS011;58877;51.992;4.504;2023-06-19T12:55:52;5.34;;;5.34;;
71176;SDS011;58877;51.992;4.504;2023-06-19T12:58:18;5.10;;;5.10;;
71176;SDS011;58877;51.992;4.504;2023-06-19T13:00:44;6.03;;;6.03;;
71176;SDS011;58877;51.992;4.504;2023-06-19T13:03:10;5.52;;;5.52;;
71176;SDS011;58877;51.992;4.504;2023-06-19T13:05:36;5.04;;;5.04;;
71176;SDS011;58877;51.992;4.504;2023-06-19T13:08:01;5.77;;;5.77;;
71176;SDS011;58877;51.992;4.504;2023-06-19T13:10:27;6.20;;;6.18;;
71176;SDS011;58877;51.992;4.504;2023-06-19T13:12:52;5.50;;;5.50;;
71176;SDS011;58877;51.992;4.504;2023-06-19T13:15:18;5.19;;;5.19;;
71176;SDS011;58877;51.992;4.504;2023-06-19T13:17:44;5.17;;;5.16;;
71176;SDS011;58877;51.992;4.504;2023-06-19T13:20:09;5.27;;;5.27;;
71176;SDS011;58877;51.992;4.504;2023-06-19T13:22:35;5.50;;;5.50;;
71176;SDS011;58877;51.992;4.504;2023-06-19T13:25:01;5.59;;;5.59;;
71176;SDS011;58877;51.992;4.504;2023-06-19T13:27:27;6.04;;;6.04;;
71176;SDS011;58877;51.992;4.504;2023-06-19T13:29:53;6.27;;;6.27;;
71176;SDS011;58877;51.992;4.504;2023-06-19T13:32:20;6.06;;;6.06;;
71176;SDS011;58877;51.992;4.504;2023-06-19T13:34:46;5.93;;;5.93;;
71176;SDS011;58877;51.992;4.504;2023-06-19T13:37:11;5.96;;;5.96;;
71176;SDS011;58877;51.992;4.504;2023-06-19T13:39:38;6.02;;;6.02;;
71176;SDS011;58877;51.992;4.504;2023-06-19T13:42:05;5.71;;;5.71;;
71176;SDS011;58877;51.992;4.504;2023-06-19T13:44:30;5.24;;;5.24;;
71176;SDS011;58877;51.992;4.504;2023-06-19T13:46:56;4.94;;;4.94;;
71176;SDS011;58877;51.992;4.504;2023-06-19T13:49:22;5.37;;;5.37;;
71176;SDS011;58877;51.992;4.504;2023-06-19T13:51:47;5.64;;;5.64;;
71176;SDS011;58877;51.992;4.504;2023-06-19T13:54:13;4.91;;;4.91;;
71176;SDS011;58877;51.992;4.504;2023-06-19T13:56:39;4.90;;;4.90;;
71176;SDS011;58877;51.992;4.504;2023-06-19T13:59:05;4.91;;;4.91;;
71176;SDS011;58877;51.992;4.504;2023-06-19T14:01:31;5.11;;;5.11;;
71176;SDS011;58877;51.992;4.504;2023-06-19T14:03:57;4.85;;;4.85;;
71176;SDS011;58877;51.992;4.504;2023-06-19T14:06:24;5.01;;;5.01;;
71176;SDS011;58877;51.992;4.504;2023-06-19T14:08:50;5.01;;;5.01;;
71176;SDS011;58877;51.992;4.504;2023-06-19T14:11:16;5.41;;;5.41;;
71176;SDS011;58877;51.992;4.504;2023-06-19T14:13:43;4.96;;;4.96;;
71176;SDS011;58877;51.992;4.504;2023-06-19T14:16:08;5.06;;;5.06;;
71176;SDS011;58877;51.992;4.504;2023-06-19T14:18:34;5.15;;;5.15;;
71176;SDS011;58877;51.992;4.504;2023-06-19T14:21:02;5.09;;;5.09;;
71176;SDS011;58877;51.992;4.504;2023-06-19T14:23:27;5.28;;;5.28;;
71176;SDS011;58877;51.992;4.504;2023-06-19T14:25:53;4.76;;;4.76;;
71176;SDS011;58877;51.992;4.504;2023-06-19T14:28:18;5.21;;;5.21;;
71176;SDS011;58877;51.992;4.504;2023-06-19T14:30:44;5.33;;;5.33;;
71176;SDS011;58877;51.992;4.504;2023-06-19T14:33:10;5.21;;;5.21;;
71176;SDS011;58877;51.992;4.504;2023-06-19T14:35:40;4.87;;;4.87;;
71176;SDS011;58877;51.992;4.504;2023-06-19T14:38:13;5.39;;;5.39;;
71176;SDS011;58877;51.992;4.504;2023-06-19T14:40:40;4.66;;;4.66;;
71176;SDS011;58877;51.992;4.504;2023-06-19T14:43:06;5.19;;;5.19;;
71176;SDS011;58877;51.992;4.504;2023-06-19T14:45:34;4.45;;;4.45;;
71176;SDS011;58877;51.992;4.504;2023-06-19T14:47:59;5.33;;;5.33;;
71176;SDS011;58877;51.992;4.504;2023-06-19T14:50:25;5.15;;;5.15;;
71176;SDS011;58877;51.992;4.504;2023-06-19T14:52:51;4.83;;;4.83;;
71176;SDS011;58877;51.992;4.504;2023-06-19T14:55:16;5.08;;;5.08;;
71176;SDS011;58877;51.992;4.504;2023-06-19T14:57:42;4.89;;;4.89;;